Time;durP1;ratioP1;P1;durP2;ratioP2;P2;SDS_P1;SDS_P2;PMS_P1;PMS_P2;Temp;Humidity;BMP_temperature;BMP_pressure;BME280_temperature;BME280_humidity;BME280_pressure;Samples;Min_cycle;Max_cycle;Signal;HPM_P1;HPM_P2
2023/01/05 00:01:04;;;;;;;53.65;35.92;;;;;;;8.62;83.48;100340.31;5109091;28;20036;-69
2023/01/05 00:03:30;;;;;;;64.35;39.80;;;;;;;7.97;86.77;100336.13;5107959;28;20027;-69
2023/01/05 00:06:00;;;;;;;73.07;41.45;;;;;;;7.81;88.36;100336.28;5108707;28;20055;-70
2023/01/05 00:08:26;;;;;;;73.57;45.38;;;;;;;7.72;89.76;100338.91;5110823;28;20024;-69
2023/01/05 00:24:31;;;;;;;78.72;47.55;;;;;;;7.35;94.68;100323.66;5102867;28;20031;-69
2023/01/05 00:26:56;;;;;;;77.65;45.92;;;;;;;7.25;95.20;100327.34;5108610;28;20028;-69
2023/01/05 00:29:22;;;;;;;80.75;46.90;;;;;;;7.47;93.69;100323.28;5110114;28;20035;-69
2023/01/05 00:31:47;;;;;;;73.13;45.08;;;;;;;7.51;93.57;100324.34;5109846;28;20028;-69
2023/01/05 00:34:13;;;;;;;74.78;44.88;;;;;;;7.59;92.78;100320.91;5109969;28;20175;-69
2023/01/05 00:36:39;;;;;;;73.18;46.53;;;;;;;7.64;93.32;100320.03;5100794;28;20036;-69
2023/01/05 00:39:05;;;;;;;73.13;44.55;;;;;;;7.75;92.05;100319.94;5102141;28;20039;-69
2023/01/05 00:41:30;;;;;;;67.15;44.15;;;;;;;7.83;90.96;100310.91;5109763;28;20409;-69
2023/01/05 00:43:56;;;;;;;68.43;42.78;;;;;;;7.72;91.47;100310.22;5110074;28;20028;-69
2023/01/05 00:46:21;;;;;;;73.45;44.25;;;;;;;7.54;91.69;100311.78;5110154;28;20028;-69
2023/01/05 00:48:47;;;;;;;71.32;44.40;;;;;;;7.74;91.17;100302.38;5110142;28;20027;-70
2023/01/05 00:51:12;;;;;;;65.32;42.72;;;;;;;7.60;92.13;100305.03;5110981;28;20437;-69
2023/01/05 00:53:37;;;;;;;69.97;43.78;;;;;;;8.02;91.04;100297.03;5113165;28;20023;-69
2023/01/05 00:56:03;;;;;;;71.18;43.35;;;;;;;8.23;89.72;100302.34;5111996;28;20047;-69
2023/01/05 00:58:29;;;;;;;69.88;41.88;;;;;;;8.39;88.38;100302.97;5111436;28;20096;-69
2023/01/05 01:00:54;;;;;;;68.82;44.30;;;;;;;8.42;87.85;100307.94;5112053;28;20023;-69
2023/01/05 01:03:19;;;;;;;64.93;41.13;;;;;;;8.55;86.87;100300.84;5113518;28;20030;-69
2023/01/05 01:05:45;;;;;;;64.35;41.10;;;;;;;8.56;86.36;100300.53;5113871;28;20034;-69
2023/01/05 01:08:10;;;;;;;60.35;40.30;;;;;;;8.69;85.82;100295.34;5114532;28;20433;-69
2023/01/05 01:10:39;;;;;;;65.95;43.15;;;;;;;8.72;85.44;100294.75;5113439;28;20046;-69
2023/01/05 01:13:04;;;;;;;65.97;42.35;;;;;;;8.13;87.07;100298.56;5114151;28;20076;-69
2023/01/05 01:15:30;;;;;;;76.70;46.08;;;;;;;7.44;92.19;100302.41;5111982;28;20019;-69
2023/01/05 01:17:55;;;;;;;74.15;47.42;;;;;;;7.33;93.87;100295.28;5114142;28;20032;-69
2023/01/05 01:20:21;;;;;;;75.45;48.72;;;;;;;7.33;93.46;100289.72;5113195;28;20035;-69
2023/01/05 01:22:46;;;;;;;75.57;48.95;;;;;;;7.22;94.95;100288.16;5114140;28;20039;-69
2023/01/05 01:25:12;;;;;;;75.90;47.17;;;;;;;7.38;93.57;100295.25;5113962;28;20121;-69
2023/01/05 01:27:37;;;;;;;79.88;50.67;;;;;;;7.10;93.81;100286.56;5112251;28;20019;-69
2023/01/05 01:30:03;;;;;;;77.68;47.63;;;;;;;6.79;96.98;100281.28;5113961;28;20112;-69
2023/01/05 01:32:28;;;;;;;77.20;47.92;;;;;;;6.72;97.83;100286.31;5112638;28;20421;-69
2023/01/05 01:34:54;;;;;;;81.80;50.83;;;;;;;6.72;97.43;100280.78;5113008;28;20513;-69
2023/01/05 01:37:19;;;;;;;81.45;52.30;;;;;;;6.70;98.24;100278.28;5112351;28;20031;-69
2023/01/05 01:39:45;;;;;;;81.93;51.67;;;;;;;7.04;97.34;100273.84;5111561;28;20453;-69
2023/01/05 01:42:15;;;;;;;79.60;47.67;;;;;;;7.32;95.12;100273.31;5112421;28;20034;-69
2023/01/05 01:44:46;;;;;;;77.15;47.45;;;;;;;7.36;93.69;100261.31;5110344;28;20019;-69
2023/01/05 01:47:41;;;;;;;72.88;43.92;;;;;;;7.42;93.30;100254.56;5112952;28;20106;-69
2023/01/05 01:50:21;;;;;;;67.57;44.35;;;;;;;7.65;91.57;100252.09;5110173;28;20062;-69
2023/01/05 01:52:48;;;;;;;;;;;;;;;7.78;90.74;100255.28;5112485;28;20057;-69
2023/01/05 01:55:14;;;;;;;72.00;43.40;;;;;;;7.76;90.13;100251.97;5107682;28;19926;-69
2023/01/05 01:57:40;;;;;;;73.50;44.83;;;;;;;7.87;89.58;100247.94;5112865;28;20024;-69
2023/01/05 02:00:09;;;;;;;68.85;42.85;;;;;;;7.89;88.82;100240.09;5111455;28;20420;-69
2023/01/05 02:02:34;;;;;;;73.53;44.17;;;;;;;7.94;88.08;100237.22;5111048;28;20035;-69
2023/01/05 02:05:05;;;;;;;68.95;42.25;;;;;;;7.69;89.35;100230.88;5110498;28;20490;-69
2023/01/05 02:07:38;;;;;;;63.90;43.42;;;;;;;7.87;89.27;100232.03;5096159;28;20403;-69
2023/01/05 02:10:04;;;;;;;64.35;41.90;;;;;;;7.99;88.39;100228.84;5112054;28;20045;-69
2023/01/05 02:12:55;;;;;;;66.60;42.45;;;;;;;7.98;87.97;100232.75;5109221;28;20114;-69
2023/01/05 02:15:30;;;;;;;76.28;44.35;;;;;;;7.89;88.49;100230.91;5112279;28;20036;-69
2023/01/05 02:18:28;;;;;;;62.72;42.10;;;;;;;7.73;88.59;100220.81;5112718;28;20063;-69
2023/01/05 02:21:06;;;;;;;69.32;44.15;;;;;;;7.66;88.98;100225.91;5095692;28;20044;-69
2023/01/05 02:23:50;;;;;;;74.07;45.67;;;;;;;7.59;89.02;100229.03;5108507;28;20035;-69
2023/01/05 02:26:27;;;;;;;77.22;47.38;;;;;;;7.48;89.37;100226.66;5111838;28;20473;-69
2023/01/05 02:29:24;;;;;;;81.47;49.83;;;;;;;7.24;90.47;100224.69;5112558;28;20198;-69
2023/01/05 02:31:54;;;;;;;79.45;49.72;;;;;;;7.23;91.30;100211.88;5111961;28;20024;-69
2023/01/05 02:34:34;;;;;;;;;;;;;;;7.39;91.29;100221.75;5111124;28;20039;-69
2023/01/05 02:37:18;;;;;;;77.43;48.50;;;;;;;7.45;90.29;100206.63;5111733;28;20006;-69
2023/01/05 02:40:19;;;;;;;69.95;42.75;;;;;;;7.55;89.69;100216.00;5111544;28;20050;-69
2023/01/05 02:42:46;;;;;;;82.30;45.30;;;;;;;7.42;89.37;100198.03;5096864;28;20084;-70
2023/01/05 02:45:15;;;;;;;77.22;48.05;;;;;;;7.05;90.80;100222.66;5112200;28;20482;-69
2023/01/05 02:47:42;;;;;;;78.38;48.35;;;;;;;6.80;92.80;100218.13;5111982;28;20015;-69
2023/01/05 02:50:12;;;;;;;76.75;48.00;;;;;;;6.49;94.74;100210.88;5111157;28;20035;-69
2023/01/05 02:52:55;;;;;;;81.47;50.70;;;;;;;6.37;96.69;100213.19;5111086;28;20031;-69
2023/01/05 02:55:31;;;;;;;88.70;52.92;;;;;;;6.37;97.26;100196.50;5111754;28;20096;-69
2023/01/05 02:58:16;;;;;;;87.25;49.30;;;;;;;6.43;96.36;100200.94;5110156;28;20027;-69
2023/01/05 03:00:49;;;;;;;83.63;47.78;;;;;;;6.52;96.05;100198.34;5110070;28;20110;-69
2023/01/05 03:03:31;;;;;;;83.50;47.25;;;;;;;6.42;95.58;100188.97;5110274;28;20031;-69
2023/01/05 03:06:24;;;;;;;78.88;46.75;;;;;;;6.57;95.34;100189.97;5110483;28;20474;-69
2023/01/05 03:08:54;;;;;;;77.38;45.38;;;;;;;6.82;94.36;100188.94;5090733;28;20036;-69
2023/01/05 03:14:31;;;;;;;77.15;45.58;;;;;;;7.21;92.25;100176.03;5111280;28;20092;-69
2023/01/05 03:17:00;;;;;;;74.30;43.03;;;;;;;7.37;91.18;100170.28;5093582;28;20028;-69
2023/01/05 03:19:38;;;;;;;75.47;45.70;;;;;;;7.40;90.05;100162.19;5091574;28;20027;-69
2023/01/05 03:37:15;;;;;;;71.50;40.50;;;;;;;7.87;87.80;100164.38;5111890;28;20046;-69
2023/01/05 03:39:44;;;;;;;72.85;41.60;;;;;;;7.85;87.27;100164.66;5110656;28;20035;-69
2023/01/05 03:42:11;;;;;;;70.60;42.28;;;;;;;7.98;86.54;100162.25;5091449;28;20031;-69
2023/01/05 03:44:39;;;;;;;72.95;41.88;;;;;;;7.96;87.49;100162.56;5107445;28;20035;-69
2023/01/05 03:47:05;;;;;;;65.85;40.70;;;;;;;8.03;86.77;100164.13;5111613;28;20020;-69
2023/01/05 03:49:30;;;;;;;70.07;43.40;;;;;;;8.04;86.02;100165.78;5110963;28;20532;-69
2023/01/05 03:51:56;;;;;;;69.13;42.05;;;;;;;7.90;86.68;100157.34;5109668;28;20085;-69
2023/01/05 03:54:21;;;;;;;72.40;42.67;;;;;;;7.94;85.97;100162.03;5110690;28;20039;-69
2023/01/05 03:56:47;;;;;;;79.82;44.75;;;;;;;7.92;86.34;100155.94;5110448;28;20101;-69
2023/01/05 03:59:13;;;;;;;69.82;43.35;;;;;;;7.96;86.44;100156.16;5108691;28;20694;-70
2023/01/05 04:01:38;;;;;;;72.82;42.92;;;;;;;7.94;85.56;100153.66;5109814;28;20514;-69
2023/01/05 04:04:04;;;;;;;70.82;41.70;;;;;;;7.92;85.47;100157.91;5101607;28;20081;-69
2023/01/05 04:06:30;;;;;;;73.07;43.60;;;;;;;7.49;87.27;100142.84;5108055;28;20030;-69
2023/01/05 04:08:55;;;;;;;70.05;43.85;;;;;;;7.75;86.19;100141.69;5110368;28;20519;-69
2023/01/05 04:11:22;;;;;;;76.97;47.72;;;;;;;7.91;85.89;100142.31;5110906;28;20112;-69
2023/01/05 04:13:48;;;;;;;88.90;49.92;;;;;;;7.44;86.44;100140.97;5110270;28;20028;-69
2023/01/05 04:16:14;;;;;;;97.70;54.95;;;;;;;7.53;87.25;100131.97;5110712;28;20032;-69
2023/01/05 04:18:39;;;;;;;102.80;57.70;;;;;;;7.77;86.08;100134.69;5109720;28;20024;-69
2023/01/05 04:21:06;;;;;;;110.75;61.72;;;;;;;7.86;84.86;100134.84;5110113;28;20115;-69
2023/01/05 04:23:32;;;;;;;91.63;54.78;;;;;;;7.84;85.13;100129.56;5110354;28;20402;-69
2023/01/05 04:25:58;;;;;;;95.32;54.45;;;;;;;7.87;84.98;100130.94;5113337;28;20118;-69
2023/01/05 04:28:23;;;;;;;95.85;54.47;;;;;;;7.73;84.60;100131.69;5114924;28;20123;-69
2023/01/05 04:30:54;;;;;;;108.50;65.28;;;;;;;7.72;84.94;100130.03;5113393;28;20201;-69
2023/01/05 04:33:20;;;;;;;127.13;70.90;;;;;;;7.81;84.58;100135.75;5113874;28;20102;-69
2023/01/05 04:35:46;;;;;;;132.73;73.72;;;;;;;7.73;84.60;100126.13;5110069;28;20031;-69
2023/01/05 04:38:12;;;;;;;154.15;85.50;;;;;;;7.74;84.42;100138.06;5114328;28;20042;-69
2023/01/05 04:40:38;;;;;;;157.48;86.13;;;;;;;7.82;84.44;100129.06;5114448;28;20088;-69
2023/01/05 04:43:04;;;;;;;145.32;83.05;;;;;;;7.82;83.21;100123.47;5112660;28;20406;-69
2023/01/05 04:45:30;;;;;;;132.63;74.28;;;;;;;7.75;83.48;100120.22;5113950;28;20062;-69
2023/01/05 04:47:55;;;;;;;98.88;54.70;;;;;;;7.77;83.17;100120.75;5102563;28;20059;-69
2023/01/05 04:50:22;;;;;;;83.43;49.45;;;;;;;7.75;82.95;100123.03;5109156;28;20035;-69
2023/01/05 04:52:48;;;;;;;85.53;50.17;;;;;;;7.62;83.41;100113.47;5111433;27;20042;-69
2023/01/05 04:55:13;;;;;;;79.90;48.92;;;;;;;7.61;83.48;100117.38;5114121;28;20398;-69
2023/01/05 04:57:39;;;;;;;80.63;47.78;;;;;;;7.61;83.47;100116.53;5113271;28;20028;-69
2023/01/05 05:00:05;;;;;;;79.13;50.22;;;;;;;7.58;83.21;100112.38;5110460;28;20027;-70
2023/01/05 05:02:31;;;;;;;82.38;49.50;;;;;;;7.51;83.54;100106.38;5111227;28;20027;-69
2023/01/05 05:04:56;;;;;;;79.03;46.95;;;;;;;7.42;83.69;100109.81;5113468;28;20551;-69
2023/01/05 05:07:22;;;;;;;91.20;49.25;;;;;;;6.93;85.21;100111.78;5113352;28;20031;-69
2023/01/05 05:09:48;;;;;;;80.57;47.33;;;;;;;7.02;85.28;100112.78;5112839;28;20031;-69
2023/01/05 05:12:14;;;;;;;74.50;45.72;;;;;;;6.73;85.68;100104.47;5112975;28;20533;-69
2023/01/05 05:14:40;;;;;;;74.03;44.80;;;;;;;6.83;85.99;100109.94;5113002;28;20089;-69
2023/01/05 05:17:05;;;;;;;90.32;45.72;;;;;;;6.77;85.78;100111.13;5113184;28;20039;-69
2023/01/05 05:19:31;;;;;;;70.50;42.80;;;;;;;6.83;85.23;100114.69;5112964;28;20036;-70
2023/01/05 05:21:57;;;;;;;75.88;44.75;;;;;;;6.80;85.12;100104.13;5110706;28;20031;-70
2023/01/05 05:24:22;;;;;;;75.15;44.08;;;;;;;6.88;84.53;100104.34;5112939;28;20486;-69
2023/01/05 05:26:48;;;;;;;94.30;49.72;;;;;;;6.51;84.58;100103.00;5114078;28;20024;-69
2023/01/05 05:29:13;;;;;;;89.32;48.15;;;;;;;6.76;83.75;100103.91;5111413;28;20036;-71
2023/01/05 05:31:39;;;;;;;92.88;50.03;;;;;;;6.74;84.56;100106.13;5113012;28;20098;-69
2023/01/05 05:34:04;;;;;;;81.15;48.53;;;;;;;6.36;87.59;100117.06;5107385;28;20027;-70
2023/01/05 05:36:29;;;;;;;90.97;50.53;;;;;;;6.60;85.66;100109.59;5112905;28;20035;-69
2023/01/05 05:38:57;;;;;;;78.15;47.10;;;;;;;6.67;85.32;100102.88;5108096;28;20038;-70
2023/01/05 05:41:22;;;;;;;71.75;43.65;;;;;;;6.72;83.80;100102.81;5106081;28;20073;-69
2023/01/05 05:43:47;;;;;;;68.82;40.63;;;;;;;5.98;86.72;100104.53;5111939;28;20031;-69
2023/01/05 05:46:13;;;;;;;77.70;40.55;;;;;;;6.25;85.18;100091.31;5113120;28;20028;-70
2023/01/05 05:48:38;;;;;;;64.00;38.97;;;;;;;6.44;84.49;100097.00;5108171;28;20031;-70
2023/01/05 05:51:04;;;;;;;71.45;40.90;;;;;;;6.41;84.59;100094.78;5112790;28;20031;-70
2023/01/05 05:53:29;;;;;;;65.90;39.55;;;;;;;6.43;83.71;100087.81;5111591;28;20030;-70
2023/01/05 05:55:55;;;;;;;66.38;40.55;;;;;;;6.53;82.90;100089.69;5108513;28;20146;-70
2023/01/05 05:58:21;;;;;;;82.22;41.40;;;;;;;6.54;83.15;100093.28;5104024;27;20525;-69
2023/01/05 06:00:46;;;;;;;78.88;41.55;;;;;;;6.46;83.26;100105.84;5107796;28;20492;-70
2023/01/05 06:03:12;;;;;;;96.65;43.55;;;;;;;6.45;83.30;100102.22;5106251;28;20032;-70
2023/01/05 06:05:37;;;;;;;112.30;48.53;;;;;;;6.54;83.42;100110.78;5101091;28;20035;-70
2023/01/05 06:08:03;;;;;;;105.30;46.50;;;;;;;6.48;83.44;100103.59;5111699;28;20064;-72
2023/01/05 06:10:28;;;;;;;135.00;66.25;;;;;;;6.43;83.69;100112.00;5110334;28;20433;-71
2023/01/05 06:12:54;;;;;;;147.48;81.22;;;;;;;6.15;84.41;100117.22;5111761;28;20512;-71
2023/01/05 06:15:21;;;;;;;174.00;90.40;;;;;;;5.57;91.83;100113.94;5110571;28;20134;-72
2023/01/05 06:17:47;;;;;;;141.90;81.18;;;;;;;5.42;92.20;100112.06;5108897;27;20547;-71
2023/01/05 06:20:15;;;;;;;174.23;98.13;;;;;;;4.75;96.30;100117.84;5111222;28;20024;-72
2023/01/05 06:22:41;;;;;;;168.55;89.53;;;;;;;4.82;96.07;100115.59;5109750;28;20148;-70
2023/01/05 06:25:07;;;;;;;174.77;68.93;;;;;;;4.76;94.22;100108.44;5108027;28;20133;-71
2023/01/05 06:27:33;;;;;;;171.45;76.07;;;;;;;4.59;95.41;100115.13;5103233;28;20032;-71
2023/01/05 06:29:58;;;;;;;174.73;77.47;;;;;;;4.95;94.96;100102.25;5109724;28;20034;-69
2023/01/05 06:32:24;;;;;;;181.05;80.93;;;;;;;4.78;95.78;100095.13;5102534;28;20028;-71
2023/01/05 06:34:49;;;;;;;180.55;80.72;;;;;;;4.96;94.56;100093.69;5095824;28;20088;-70
2023/01/05 06:37:15;;;;;;;253.93;104.97;;;;;;;4.75;94.56;100104.81;5106849;28;20229;-70
2023/01/05 06:39:40;;;;;;;221.05;90.05;;;;;;;5.02;93.91;100098.09;5101460;28;20073;-71
2023/01/05 06:42:06;;;;;;;182.23;79.75;;;;;;;4.46;95.75;100096.25;5108878;28;20031;-71
2023/01/05 06:44:31;;;;;;;176.77;88.53;;;;;;;4.32;97.32;100088.53;5105309;28;20035;-70
2023/01/05 06:46:57;;;;;;;164.77;86.45;;;;;;;4.49;97.46;100101.28;5107821;28;20028;-72
2023/01/05 06:49:22;;;;;;;147.48;77.03;;;;;;;4.34;98.08;100086.34;5102493;28;20539;-72
2023/01/05 06:51:47;;;;;;;379.75;196.80;;;;;;;4.83;97.46;100089.56;5109892;28;20409;-71
2023/01/05 06:54:13;;;;;;;387.20;215.48;;;;;;;4.89;95.74;100085.66;5110954;28;20145;-72
2023/01/05 06:56:38;;;;;;;241.55;128.52;;;;;;;5.13;95.04;100093.34;5110148;28;20100;-71
2023/01/05 06:59:04;;;;;;;174.95;93.47;;;;;;;5.30;93.93;100092.16;5107567;28;20027;-72
2023/01/05 07:01:29;;;;;;;121.32;68.55;;;;;;;5.52;92.63;100091.78;5109133;28;20039;-70
2023/01/05 07:03:55;;;;;;;117.03;59.95;;;;;;;5.64;91.66;100091.44;5102338;28;20115;-72
2023/01/05 07:06:20;;;;;;;88.25;53.17;;;;;;;5.49;89.46;100081.25;5100680;28;20031;-72
2023/01/05 07:08:46;;;;;;;110.82;62.28;;;;;;;4.99;92.03;100081.19;5109441;28;20406;-72
2023/01/05 07:11:12;;;;;;;116.55;66.15;;;;;;;5.17;91.58;100075.00;5103623;28;20035;-70
2023/01/05 07:13:38;;;;;;;127.10;71.68;;;;;;;4.76;94.00;100061.31;5108255;28;20022;-71
2023/01/05 07:16:04;;;;;;;118.30;66.82;;;;;;;4.78;96.08;100064.63;5107761;28;20114;-75
2023/01/05 07:18:29;;;;;;;117.10;62.67;;;;;;;4.75;95.86;100059.66;5108025;28;20059;-76
2023/01/05 07:20:54;;;;;;;111.40;63.65;;;;;;;4.61;96.58;100063.00;5108434;28;20084;-74
2023/01/05 07:23:20;;;;;;;124.93;67.35;;;;;;;5.06;97.13;100060.38;5100412;27;20028;-72
2023/01/05 07:25:45;;;;;;;114.18;62.47;;;;;;;5.16;94.20;100047.56;5107122;28;20035;-75
2023/01/05 07:28:11;;;;;;;134.57;66.72;;;;;;;5.52;94.50;100049.31;5103320;27;20437;-72
2023/01/05 07:30:36;;;;;;;109.47;55.97;;;;;;;5.54;92.62;100044.31;5106208;28;20062;-73
2023/01/05 07:33:02;;;;;;;92.03;48.90;;;;;;;5.93;92.08;100035.16;5109021;28;20107;-72
2023/01/05 07:35:27;;;;;;;92.50;50.00;;;;;;;5.82;91.30;100036.34;5104153;28;20047;-70
2023/01/05 07:37:56;;;;;;;92.38;51.72;;;;;;;5.97;92.79;100025.13;5094723;28;20620;-70
2023/01/05 07:40:21;;;;;;;99.63;55.83;;;;;;;6.51;90.29;100018.81;5095376;28;20068;-71
2023/01/05 07:42:52;;;;;;;75.97;46.53;;;;;;;6.51;89.30;100013.25;5101646;28;20027;-70
2023/01/05 07:45:17;;;;;;;;;;;;;;;6.55;88.37;100014.31;5103144;28;20034;-71
2023/01/05 07:47:43;;;;;;;157.73;84.35;;;;;;;6.64;88.84;100011.75;5106222;28;19919;-74
2023/01/05 07:50:08;;;;;;;95.97;54.38;;;;;;;6.58;89.88;100006.22;5108389;28;20039;-72
2023/01/05 07:52:34;;;;;;;92.03;51.70;;;;;;;7.02;88.76;100011.84;5105294;28;20035;-73
2023/01/05 07:54:59;;;;;;;87.22;50.50;;;;;;;7.21;87.76;100011.88;5106799;28;20028;-75
2023/01/05 07:57:25;;;;;;;70.85;39.97;;;;;;;7.19;88.17;100013.28;5106078;28;20032;-75
2023/01/05 07:59:50;;;;;;;64.22;38.05;;;;;;;7.52;86.71;100008.63;5109054;28;20031;-75
2023/01/05 08:02:16;;;;;;;147.88;44.35;;;;;;;7.63;87.12;99997.34;5118256;27;20035;-74
2023/01/05 08:04:41;;;;;;;81.00;39.53;;;;;;;8.00;85.04;99995.63;5114173;28;20035;-74
2023/01/05 08:07:10;;;;;;;61.10;37.28;;;;;;;7.98;83.90;99987.59;5111176;27;20023;-74
2023/01/05 08:12:20;;;;;;;55.80;33.65;;;;;;;8.43;81.87;99986.22;5112676;28;20038;-75
2023/01/05 08:14:45;;;;;;;65.78;35.35;;;;;;;8.59;80.23;99988.75;5116635;28;20028;-75
2023/01/05 08:17:11;;;;;;;60.35;33.83;;;;;;;8.90;78.83;99983.38;5117195;27;20051;-75
2023/01/05 08:19:37;;;;;;;57.60;33.47;;;;;;;8.59;80.01;99980.41;5105833;27;20492;-75
2023/01/05 08:22:03;;;;;;;66.82;35.13;;;;;;;8.71;80.62;99980.69;5118287;27;20027;-75
2023/01/05 08:24:29;;;;;;;70.82;36.28;;;;;;;9.28;79.45;99987.84;5118154;27;20080;-75
2023/01/05 08:26:54;;;;;;;62.03;35.78;;;;;;;9.60;77.30;99969.25;5118191;27;20474;-75
2023/01/05 08:29:20;;;;;;;63.42;35.40;;;;;;;9.89;76.92;99979.16;5118005;27;20036;-75
2023/01/05 08:31:45;;;;;;;69.45;35.10;;;;;;;10.07;75.69;99968.09;5116779;28;20080;-76
2023/01/05 08:34:11;;;;;;;55.20;29.70;;;;;;;10.33;74.39;99956.22;5116319;28;20046;-75
2023/01/05 08:36:38;;;;;;;61.38;33.25;;;;;;;10.12;73.23;99937.22;5115383;27;20399;-74
2023/01/05 08:39:04;;;;;;;54.70;32.03;;;;;;;10.28;73.27;99937.63;5117774;28;20031;-74
2023/01/05 08:41:34;;;;;;;60.28;33.33;;;;;;;9.96;74.06;99934.03;5118036;27;20054;-74
2023/01/05 08:44:01;;;;;;;55.83;33.92;;;;;;;10.18;73.58;99927.56;5117913;27;20429;-74
2023/01/05 08:46:31;;;;;;;56.70;33.03;;;;;;;10.62;73.13;99926.94;5114326;27;20085;-73
2023/01/05 08:48:58;;;;;;;55.45;32.08;;;;;;;10.55;72.65;99926.59;5115714;28;20417;-73
2023/01/05 08:51:25;;;;;;;61.10;39.42;;;;;;;10.69;72.64;99921.69;5115950;28;20031;-75
2023/01/05 08:53:50;;;;;;;50.78;30.40;;;;;;;11.06;71.84;99916.66;5115583;28;20058;-74
2023/01/05 08:56:17;;;;;;;47.15;29.80;;;;;;;10.77;72.35;99918.09;5117768;27;20518;-74
2023/01/05 08:58:42;;;;;;;53.20;29.70;;;;;;;11.11;70.32;99901.69;5116400;28;20028;-75
2023/01/05 09:01:13;;;;;;;48.33;29.20;;;;;;;11.42;68.94;99899.88;5117696;27;20405;-74
2023/01/05 09:03:39;;;;;;;49.30;29.52;;;;;;;11.12;70.03;99897.72;5115597;27;20024;-74
2023/01/05 09:06:08;;;;;;;48.47;29.17;;;;;;;11.31;69.07;99896.59;5113878;28;20085;-75
2023/01/05 09:08:34;;;;;;;44.30;29.88;;;;;;;11.33;67.47;99895.09;5115790;27;20585;-74
2023/01/05 09:11:15;;;;;;;44.65;27.30;;;;;;;11.11;66.82;99895.28;5116765;27;20051;-74
2023/01/05 09:13:48;;;;;;;37.88;25.20;;;;;;;10.94;66.01;99891.28;5104240;28;20042;-74
2023/01/05 09:16:17;;;;;;;43.25;25.48;;;;;;;10.74;67.46;99890.78;5094613;28;20028;-74
2023/01/05 09:18:44;;;;;;;37.28;24.38;;;;;;;10.99;67.52;99882.75;5103107;28;20479;-74
2023/01/05 09:21:10;;;;;;;38.92;24.25;;;;;;;11.18;66.24;99878.78;5114370;28;20482;-74
2023/01/05 09:23:36;;;;;;;36.67;21.13;;;;;;;11.08;65.31;99866.75;5112469;28;20448;-74
2023/01/05 09:26:03;;;;;;;35.70;23.15;;;;;;;11.42;65.17;99861.50;5109819;28;20039;-75
2023/01/05 09:28:29;;;;;;;30.63;19.48;;;;;;;11.15;65.22;99854.25;5112953;28;20023;-75
2023/01/05 09:30:54;;;;;;;30.73;19.00;;;;;;;11.29;64.08;99851.28;5114118;28;20039;-74
2023/01/05 09:33:20;;;;;;;31.70;19.65;;;;;;;11.44;62.15;99844.34;5112345;28;20693;-72
2023/01/05 09:35:53;;;;;;;26.30;17.30;;;;;;;11.43;61.38;99854.72;5112950;28;20073;-77
2023/01/05 09:38:19;;;;;;;50.92;20.40;;;;;;;11.45;61.83;99846.81;5109417;28;20035;-75
2023/01/05 09:40:45;;;;;;;31.13;18.40;;;;;;;11.47;61.00;99840.91;5110635;28;20024;-75
2023/01/05 09:43:21;;;;;;;31.63;18.73;;;;;;;11.15;61.56;99840.25;5108598;28;20024;-75
2023/01/05 09:45:49;;;;;;;30.50;18.42;;;;;;;11.15;61.88;99823.47;5113426;28;20027;-76
2023/01/05 09:48:16;;;;;;;31.40;17.73;;;;;;;11.50;61.60;99817.81;5113138;28;20051;-76
2023/01/05 09:50:43;;;;;;;30.92;16.77;;;;;;;11.42;61.53;99810.25;5099717;27;20032;-76
2023/01/05 09:53:11;;;;;;;26.88;16.73;;;;;;;11.58;61.71;99805.75;5113402;28;20024;-76
2023/01/05 09:55:37;;;;;;;23.05;16.27;;;;;;;11.69;59.41;99788.56;5110955;27;20474;-77
2023/01/05 09:58:13;;;;;;;22.80;15.90;;;;;;;11.92;59.78;99784.38;5110918;28;20409;-77
2023/01/05 10:00:46;;;;;;;29.88;17.50;;;;;;;12.08;59.57;99773.44;5094895;28;20040;-79
2023/01/05 10:03:19;;;;;;;28.98;15.65;;;;;;;12.18;58.27;99755.41;5106582;28;20405;-74
2023/01/05 10:05:46;;;;;;;19.13;13.30;;;;;;;11.93;57.64;99745.97;5109479;28;20038;-73
2023/01/05 10:08:18;;;;;;;29.13;16.35;;;;;;;12.24;58.18;99749.63;5101892;28;20058;-75
2023/01/05 10:13:01;;;;;;;26.92;15.60;;;;;;;12.27;57.36;99741.34;5109597;28;20040;-73
2023/01/05 10:13:41;;;;;;;25.88;15.48;;;;;;;12.43;56.81;99737.94;5107534;28;20035;-75
2023/01/05 10:16:14;;;;;;;27.85;17.30;;;;;;;12.26;57.31;99744.47;5111390;28;20055;-73
2023/01/05 10:18:40;;;;;;;25.48;15.00;;;;;;;12.28;56.85;99734.56;5111249;27;20038;-73
2023/01/05 10:21:18;;;;;;;25.75;16.75;;;;;;;12.43;57.60;99730.34;5110846;28;20123;-79
2023/01/05 10:23:50;;;;;;;21.92;15.13;;;;;;;12.52;55.87;99723.84;5109422;28;20031;-77
2023/01/05 10:26:32;;;;;;;33.90;21.70;;;;;;;12.63;56.39;99711.88;5110891;28;20459;-74
2023/01/05 10:29:34;;;;;;;28.00;16.95;;;;;;;12.67;56.64;99720.44;5107497;28;20019;-74
2023/01/05 10:32:25;;;;;;;24.05;15.23;;;;;;;12.60;55.71;99704.13;5095037;28;20043;-75
2023/01/05 10:34:55;;;;;;;23.13;15.48;;;;;;;12.77;55.92;99696.72;5106517;28;20494;-76
2023/01/05 10:37:41;;;;;;;39.50;24.67;;;;;;;12.56;56.15;99689.13;5104812;28;20471;-75
2023/01/05 10:40:41;;;;;;;27.27;17.00;;;;;;;12.72;55.79;99685.69;5094521;28;20053;-73
2023/01/05 10:43:45;;;;;;;24.73;16.35;;;;;;;12.95;55.09;99676.88;5100249;28;20114;-72
2023/01/05 10:46:12;;;;;;;27.40;16.98;;;;;;;13.18;54.82;99674.50;5077394;28;20413;-78
2023/01/05 10:48:38;;;;;;;23.75;16.20;;;;;;;13.00;53.90;99677.50;5096298;28;20023;-74
2023/01/05 10:51:06;;;;;;;31.85;15.82;;;;;;;12.92;54.30;99673.63;5095375;28;20122;-75
2023/01/05 10:53:35;;;;;;;22.42;15.77;;;;;;;12.85;53.71;99653.72;5105787;28;20057;-75
2023/01/05 10:56:11;;;;;;;27.23;17.00;;;;;;;12.82;53.71;99660.00;5097907;28;20077;-78
2023/01/05 10:58:39;;;;;;;22.35;14.75;;;;;;;12.94;54.24;99650.00;5099047;28;20031;-78
2023/01/05 11:01:13;;;;;;;30.17;16.58;;;;;;;13.09;54.40;99651.31;5096590;28;20030;-78
2023/01/05 11:03:44;;;;;;;26.08;16.35;;;;;;;12.87;54.34;99651.38;5093645;28;20031;-77
2023/01/05 11:06:20;;;;;;;25.13;15.93;;;;;;;12.57;55.32;99651.50;5100056;28;20026;-77
2023/01/05 11:08:45;;;;;;;22.95;15.73;;;;;;;12.64;54.99;99645.31;5096981;28;20027;-75
2023/01/05 11:11:21;;;;;;;27.58;16.45;;;;;;;12.58;55.19;99632.69;5119828;27;20103;-78
2023/01/05 11:13:48;;;;;;;26.15;17.52;;;;;;;12.77;54.94;99635.78;5098291;28;20555;-75
2023/01/05 11:16:19;;;;;;;24.85;15.43;;;;;;;12.82;54.66;99636.75;5093935;27;20023;-76
2023/01/05 11:18:50;;;;;;;30.23;16.15;;;;;;;12.91;53.97;99626.22;5093102;28;20031;-77
2023/01/05 11:21:24;;;;;;;25.35;17.00;;;;;;;12.75;53.95;99626.09;5091135;28;20584;-78
2023/01/05 11:23:52;;;;;;;20.67;14.20;;;;;;;12.78;53.95;99614.97;5091697;28;20035;-77
2023/01/05 11:26:18;;;;;;;20.85;14.55;;;;;;;13.00;54.01;99609.31;5105138;28;20020;-77
2023/01/05 11:29:01;;;;;;;25.38;16.02;;;;;;;12.92;53.11;99605.44;5098535;28;20104;-77
2023/01/05 11:32:03;;;;;;;22.67;15.63;;;;;;;12.89;53.44;99603.31;5105856;28;20031;-77
2023/01/05 11:34:35;;;;;;;30.00;15.13;;;;;;;12.81;53.21;99599.44;5092903;28;20046;-77
2023/01/05 11:37:04;;;;;;;22.73;14.40;;;;;;;13.18;52.66;99604.31;5097255;28;20032;-76
2023/01/05 11:39:37;;;;;;;26.30;16.00;;;;;;;13.28;52.26;99597.41;5094740;28;20479;-78
2023/01/05 11:42:24;;;;;;;25.27;13.95;;;;;;;13.45;52.44;99602.00;5088907;28;20032;-76
2023/01/05 11:44:53;;;;;;;31.63;17.52;;;;;;;13.56;51.70;99591.94;5101964;28;20081;-75
2023/01/05 11:47:36;;;;;;;23.13;13.83;;;;;;;13.34;51.62;99598.81;5098830;28;20111;-74
2023/01/05 11:50:08;;;;;;;23.27;14.82;;;;;;;13.27;52.24;99593.78;5095924;28;20028;-73
2023/01/05 11:52:36;;;;;;;22.15;14.57;;;;;;;13.30;52.36;99590.25;5088838;28;20059;-75
2023/01/05 11:55:23;;;;;;;36.20;16.45;;;;;;;13.27;52.58;99584.53;5092586;28;20054;-73
2023/01/05 11:57:51;;;;;;;27.13;15.85;;;;;;;13.60;52.10;99578.78;5096201;28;20085;-73
2023/01/05 12:00:31;;;;;;;27.88;17.75;;;;;;;13.97;51.69;99572.31;5102025;28;20077;-75